Time;durP1;ratioP1;P1;durP2;ratioP2;P2;SDS_P1;SDS_P2;PMS_P1;PMS_P2;Temp;Humidity;BMP_temperature;BMP_pressure;BME280_temperature;BME280_humidity;BME280_pressure;Samples;Min_cycle;Max_cycle;Signal;HPM_P1;HPM_P2
2023/05/04 00:02:22;;;;;;;9.07;8.20;;;11.90;94.90;;;;;;5018210;28;20429;-83
2023/05/04 00:04:51;;;;;;;9.70;8.70;;;12.00;94.90;;;;;;5019731;28;20414;-82
2023/05/04 00:07:16;;;;;;;14.57;8.30;;;12.00;94.90;;;;;;5020635;28;20417;-81
2023/05/04 00:09:42;;;;;;;9.67;8.77;;;12.00;94.90;;;;;;5020621;28;20399;-80
2023/05/04 00:12:08;;;;;;;8.43;7.60;;;12.00;95.00;;;;;;5021170;28;20221;-81
2023/05/04 00:14:34;;;;;;;8.80;7.90;;;11.90;95.20;;;;;;5019878;28;20238;-82
2023/05/04 00:17:01;;;;;;;10.53;8.00;;;11.80;95.30;;;;;;5013517;28;20190;-82
2023/05/04 00:19:27;;;;;;;8.43;7.57;;;11.60;95.70;;;;;;5011686;28;20434;-81
2023/05/04 00:21:53;;;;;;;10.40;7.40;;;11.40;96.60;;;;;;5013161;28;20473;-81
2023/05/04 00:24:19;;;;;;;10.37;7.93;;;11.40;97.00;;;;;;5013355;28;20632;-80
2023/05/04 00:26:44;;;;;;;9.07;7.43;;;11.20;97.40;;;;;;5011786;28;20229;-81
2023/05/04 00:29:10;;;;;;;8.73;7.83;;;11.10;97.90;;;;;;5013197;28;20180;-81
2023/05/04 00:31:36;;;;;;;8.20;7.50;;;10.90;98.60;;;;;;5012054;28;20171;-79
2023/05/04 00:34:02;;;;;;;9.10;8.20;;;10.90;99.00;;;;;;5011132;28;20211;-81
2023/05/04 00:36:27;;;;;;;8.37;7.40;;;10.80;99.30;;;;;;5013294;28;20179;-80
2023/05/04 00:38:54;;;;;;;8.20;7.47;;;10.70;99.90;;;;;;5009985;28;20198;-79
2023/05/04 00:41:20;;;;;;;8.07;7.37;;;10.60;99.90;;;;;;5013250;28;20173;-80
2023/05/04 00:43:47;;;;;;;8.20;7.20;;;10.50;99.90;;;;;;5012149;28;20960;-80
2023/05/04 00:46:13;;;;;;;8.53;7.63;;;10.50;99.90;;;;;;5013003;28;20463;-81
2023/05/04 00:48:40;;;;;;;8.50;7.80;;;10.50;99.90;;;;;;5011055;28;20800;-79
2023/05/04 00:51:06;;;;;;;9.10;7.87;;;10.40;99.90;;;;;;5012544;28;20453;-80
2023/05/04 00:53:33;;;;;;;9.23;7.10;;;10.40;99.90;;;;;;5013010;28;20932;-81
2023/05/04 00:56:00;;;;;;;9.00;8.13;;;10.30;99.90;;;;;;5012143;28;20908;-81
2023/05/04 00:58:30;;;;;;;7.40;6.80;;;10.30;99.90;;;;;;5013605;28;20424;-81
2023/05/04 01:00:58;;;;;;;8.20;7.40;;;10.50;99.90;;;;;;5011476;28;20518;-81
2023/05/04 01:03:25;;;;;;;9.30;7.70;;;10.60;99.90;;;;;;5011914;28;20987;-80
2023/05/04 01:06:17;;;;;;;8.40;7.60;;;10.60;99.90;;;;;;5011694;28;20487;-81
2023/05/04 01:08:59;;;;;;;8.80;7.73;;;10.60;99.90;;;;;;5011561;28;20408;-80
2023/05/04 01:11:54;;;;;;;9.10;8.20;;;10.40;99.90;;;;;;5012541;28;20536;-80
2023/05/04 01:14:20;;;;;;;8.20;7.50;;;10.20;99.90;;;;;;4989486;28;20476;-80
2023/05/04 01:16:47;;;;;;;8.03;7.27;;;10.20;99.90;;;;;;5010958;28;20761;-80
2023/05/04 01:19:12;;;;;;;8.47;7.23;;;10.10;99.90;;;;;;4993877;28;20917;-79
2023/05/04 01:21:38;;;;;;;8.17;7.30;;;10.20;99.90;;;;;;5003470;28;20439;-78
2023/05/04 01:24:05;;;;;;;8.10;7.30;;;10.30;99.90;;;;;;5012327;28;20623;-79
2023/05/04 01:26:35;;;;;;;9.80;7.40;;;10.40;99.90;;;;;;5012486;28;20179;-80
2023/05/04 01:29:07;;;;;;;8.23;7.53;;;10.30;99.90;;;;;;5008002;28;20540;-80
2023/05/04 01:31:34;;;;;;;7.93;6.93;;;10.30;99.90;;;;;;5006210;28;20449;-80
2023/05/04 01:34:00;;;;;;;8.70;7.80;;;10.40;99.90;;;;;;5009980;28;20462;-79
2023/05/04 01:36:33;;;;;;;9.30;8.40;;;10.40;99.90;;;;;;5012402;28;20899;-79
2023/05/04 01:38:59;;;;;;;8.33;7.60;;;10.40;99.90;;;;;;5011710;28;20452;-79
2023/05/04 01:41:26;;;;;;;10.17;8.97;;;10.50;99.90;;;;;;5012048;28;20523;-79
2023/05/04 01:43:53;;;;;;;9.27;8.37;;;10.30;99.90;;;;;;5010715;28;20210;-80
2023/05/04 01:46:19;;;;;;;9.43;8.53;;;10.30;99.90;;;;;;5011275;28;20517;-80
2023/05/04 01:48:44;;;;;;;9.40;8.17;;;10.50;99.90;;;;;;5011125;28;20804;-80
2023/05/04 01:51:10;;;;;;;8.90;8.00;;;10.50;99.90;;;;;;5010651;28;20460;-79
2023/05/04 01:53:36;;;;;;;9.43;8.33;;;10.50;99.90;;;;;;5011293;28;20186;-78
2023/05/04 01:56:02;;;;;;;8.80;7.90;;;10.60;99.90;;;;;;5011474;28;20182;-80
2023/05/04 01:58:28;;;;;;;7.63;6.90;;;10.70;99.90;;;;;;5010819;28;20190;-79
2023/05/04 02:00:54;;;;;;;8.37;7.63;;;10.80;99.90;;;;;;5009797;28;20913;-79
2023/05/04 02:03:19;;;;;;;7.33;6.63;;;10.80;99.90;;;;;;5011894;28;20217;-81
2023/05/04 02:05:45;;;;;;;8.57;7.77;;;10.80;99.90;;;;;;5010614;28;20451;-80
2023/05/04 02:08:11;;;;;;;8.00;7.30;;;10.80;99.90;;;;;;5011953;28;20208;-81
2023/05/04 02:10:37;;;;;;;8.10;7.40;;;10.80;99.90;;;;;;5009537;28;20185;-78
2023/05/04 02:13:02;;;;;;;8.60;7.90;;;10.80;99.90;;;;;;5011689;28;20174;-80
2023/05/04 02:15:28;;;;;;;8.00;7.30;;;10.70;99.90;;;;;;5011807;28;20657;-80
2023/05/04 02:17:54;;;;;;;8.03;7.43;;;10.70;99.90;;;;;;5010294;28;20261;-80
2023/05/04 02:20:20;;;;;;;7.70;6.90;;;10.70;99.90;;;;;;5011816;28;20170;-80
2023/05/04 02:22:45;;;;;;;8.43;7.70;;;10.70;99.90;;;;;;5011000;28;20701;-80
2023/05/04 02:25:11;;;;;;;7.37;6.73;;;10.60;99.90;;;;;;5011869;28;20760;-80
2023/05/04 02:27:37;;;;;;;7.10;6.43;;;10.60;99.90;;;;;;5013435;28;20179;-78
2023/05/04 02:30:03;;;;;;;7.43;6.70;;;10.60;99.90;;;;;;5015608;28;20173;-80
2023/05/04 02:32:29;;;;;;;8.27;7.60;;;10.60;99.90;;;;;;5015712;28;20574;-80
2023/05/04 02:34:55;;;;;;;8.20;7.37;;;10.60;99.90;;;;;;5014829;28;20554;-80
2023/05/04 02:37:21;;;;;;;7.77;7.27;;;10.60;99.90;;;;;;5013408;28;20456;-81
2023/05/04 02:39:47;;;;;;;8.27;7.57;;;10.60;99.90;;;;;;5014957;28;20183;-81
2023/05/04 02:42:13;;;;;;;8.37;7.50;;;10.60;99.90;;;;;;5015267;28;20403;-81
2023/05/04 02:44:38;;;;;;;7.53;6.83;;;10.60;99.90;;;;;;5013806;28;20187;-78
2023/05/04 02:47:05;;;;;;;8.30;7.37;;;10.60;99.90;;;;;;5015427;28;20912;-81
2023/05/04 02:49:30;;;;;;;8.23;7.47;;;10.50;99.90;;;;;;5014831;28;20173;-80
2023/05/04 02:51:56;;;;;;;8.53;7.43;;;10.60;99.90;;;;;;5014769;28;20529;-81
2023/05/04 02:54:22;;;;;;;8.23;7.30;;;10.50;99.90;;;;;;5014868;28;20650;-81
2023/05/04 02:56:47;;;;;;;8.97;8.17;;;10.50;99.90;;;;;;5013225;28;20686;-81
2023/05/04 02:59:13;;;;;;;7.60;7.00;;;10.50;99.90;;;;;;5014391;28;20194;-81
2023/05/04 03:01:39;;;;;;;7.80;7.10;;;10.40;99.90;;;;;;5014270;28;20184;-79
2023/05/04 03:04:06;;;;;;;8.47;7.77;;;10.40;99.90;;;;;;5015207;28;20259;-80
2023/05/04 03:06:32;;;;;;;9.73;8.83;;;10.40;99.90;;;;;;5014392;28;20192;-80
2023/05/04 03:08:58;;;;;;;8.77;8.07;;;10.40;99.90;;;;;;5014011;28;20585;-80
2023/05/04 03:11:24;;;;;;;8.13;7.40;;;10.40;99.90;;;;;;5013627;28;20426;-80
2023/05/04 03:13:50;;;;;;;8.67;7.87;;;10.40;99.90;;;;;;5014292;28;20490;-81
2023/05/04 03:16:16;;;;;;;10.90;7.90;;;10.40;99.90;;;;;;5014780;28;20420;-80
2023/05/04 03:18:42;;;;;;;9.47;8.57;;;10.40;99.90;;;;;;5014125;28;21067;-79
2023/05/04 03:21:13;;;;;;;9.20;8.30;;;10.30;99.90;;;;;;5015474;28;20253;-79
2023/05/04 03:23:39;;;;;;;8.77;7.97;;;10.30;99.90;;;;;;5014199;28;20505;-78
2023/05/04 03:26:05;;;;;;;15.17;8.70;;;10.30;99.90;;;;;;5014638;28;20261;-79
2023/05/04 03:28:31;;;;;;;8.53;7.73;;;10.30;99.90;;;;;;5012594;28;20179;-79
2023/05/04 03:30:56;;;;;;;11.80;8.67;;;10.30;99.90;;;;;;5028996;28;20176;-79
2023/05/04 03:33:22;;;;;;;11.00;8.33;;;10.20;99.90;;;;;;5013640;28;20768;-81
2023/05/04 03:35:48;;;;;;;9.20;7.90;;;10.30;99.90;;;;;;5012455;28;20309;-80
2023/05/04 03:38:13;;;;;;;10.00;8.30;;;10.30;99.90;;;;;;5014331;28;20181;-80
2023/05/04 03:40:39;;;;;;;8.80;8.00;;;10.30;99.90;;;;;;5011912;28;20227;-79
2023/05/04 03:43:05;;;;;;;10.30;9.50;;;10.30;99.90;;;;;;5014478;28;20182;-81
2023/05/04 03:45:30;;;;;;;10.67;7.77;;;10.30;99.90;;;;;;5014560;28;20174;-80
2023/05/04 03:47:56;;;;;;;12.27;11.37;;;10.30;99.90;;;;;;5008930;28;20310;-80
2023/05/04 03:50:22;;;;;;;11.83;10.70;;;10.30;99.90;;;;;;5006994;28;20249;-80
2023/05/04 03:52:49;;;;;;;9.83;8.50;;;10.30;99.90;;;;;;5005184;28;20657;-80
2023/05/04 03:55:15;;;;;;;11.20;10.10;;;10.30;99.90;;;;;;5006509;28;20449;-79
2023/05/04 03:57:40;;;;;;;11.70;10.70;;;10.30;99.90;;;;;;5007034;28;20473;-79
2023/05/04 04:00:07;;;;;;;10.27;9.37;;;10.30;99.90;;;;;;5012228;28;20426;-79
2023/05/04 04:02:33;;;;;;;11.20;8.27;;;10.30;99.90;;;;;;5011842;28;20601;-81
2023/05/04 04:04:59;;;;;;;8.77;7.97;;;10.30;99.90;;;;;;5019771;28;20436;-81
2023/05/04 04:07:25;;;;;;;10.70;9.77;;;10.30;99.90;;;;;;5023892;28;20181;-80
2023/05/04 04:09:54;;;;;;;10.20;8.17;;;10.30;99.90;;;;;;5025011;28;20172;-79
2023/05/04 04:12:20;;;;;;;9.80;9.00;;;10.30;99.90;;;;;;5017887;28;20178;-82
2023/05/04 04:14:51;;;;;;;11.60;10.70;;;10.20;99.90;;;;;;5018095;28;20556;-79
2023/05/04 04:17:17;;;;;;;9.07;8.37;;;10.20;99.90;;;;;;5019276;28;20435;-81
2023/05/04 04:19:43;;;;;;;11.77;10.70;;;10.20;99.90;;;;;;5020301;28;20823;-76
2023/05/04 04:22:08;;;;;;;9.60;8.73;;;10.20;99.90;;;;;;5009864;28;20491;-74
2023/05/04 04:24:34;;;;;;;10.07;9.07;;;10.20;99.90;;;;;;5013249;28;20210;-73
2023/05/04 04:27:00;;;;;;;10.40;9.47;;;10.20;99.90;;;;;;5009823;28;20227;-73
2023/05/04 04:29:26;;;;;;;9.33;8.50;;;10.20;99.90;;;;;;5011507;28;20205;-74
2023/05/04 04:31:52;;;;;;;10.97;8.63;;;10.20;99.90;;;;;;5013255;28;20180;-82
2023/05/04 04:34:17;;;;;;;8.90;8.00;;;10.20;99.90;;;;;;5011853;28;20218;-77
2023/05/04 04:36:44;;;;;;;13.77;11.57;;;10.20;99.90;;;;;;5010887;28;20633;-74
2023/05/04 04:39:10;;;;;;;10.07;9.17;;;10.20;99.90;;;;;;5013915;28;20265;-74
2023/05/04 04:41:36;;;;;;;8.90;8.00;;;10.20;99.90;;;;;;5014094;28;20403;-75
2023/05/04 04:44:02;;;;;;;11.50;9.60;;;10.20;99.90;;;;;;5013726;28;20541;-74
2023/05/04 04:46:28;;;;;;;10.33;9.27;;;10.20;99.90;;;;;;5013100;28;20415;-75
2023/05/04 04:48:54;;;;;;;9.20;8.30;;;10.20;99.90;;;;;;5001074;28;20498;-75
2023/05/04 04:51:20;;;;;;;13.13;12.23;;;10.30;99.90;;;;;;4992998;28;20546;-75
2023/05/04 04:53:46;;;;;;;11.43;9.70;;;10.40;99.90;;;;;;4993644;28;20762;-77
2023/05/04 04:56:11;;;;;;;13.97;12.70;;;10.80;99.90;;;;;;4990780;28;20426;-78
2023/05/04 04:58:37;;;;;;;10.77;9.87;;;11.30;99.90;;;;;;5009150;28;20218;-77
2023/05/04 05:01:03;;;;;;;11.53;10.57;;;11.80;99.90;;;;;;5005774;28;20183;-76
2023/05/04 05:03:30;;;;;;;10.40;9.40;;;12.20;99.90;;;;;;5008185;28;20223;-77
2023/05/04 05:06:00;;;;;;;9.33;7.73;;;12.40;99.90;;;;;;5004138;28;20634;-77
2023/05/04 05:08:26;;;;;;;15.10;9.53;;;12.80;99.90;;;;;;5005206;28;20416;-77
2023/05/04 05:10:52;;;;;;;14.53;12.80;;;13.40;99.90;;;;;;4993615;28;20424;-78
2023/05/04 05:13:18;;;;;;;11.20;10.10;;;13.90;99.90;;;;;;5008463;28;20483;-77
2023/05/04 05:15:44;;;;;;;12.00;10.80;;;14.30;99.90;;;;;;5011599;28;20252;-77
2023/05/04 05:18:10;;;;;;;12.30;8.83;;;14.60;99.90;;;;;;5013850;28;20616;-77
2023/05/04 05:20:36;;;;;;;12.90;11.00;;;15.00;99.90;;;;;;5012607;28;20518;-77
2023/05/04 05:23:02;;;;;;;11.17;10.27;;;15.00;97.20;;;;;;5012698;28;20172;-77
2023/05/04 05:25:27;;;;;;;9.60;8.80;;;14.80;93.30;;;;;;5012913;28;20229;-77
2023/05/04 05:27:53;;;;;;;13.37;12.17;;;14.50;91.90;;;;;;5011036;28;20572;-76
2023/05/04 05:30:19;;;;;;;11.70;10.77;;;14.10;91.80;;;;;;5010821;28;20185;-77
2023/05/04 05:32:45;;;;;;;11.70;10.20;;;13.80;92.30;;;;;;5012703;28;20178;-76
2023/05/04 05:35:11;;;;;;;9.87;8.90;;;13.50;92.70;;;;;;5012390;28;20204;-77
2023/05/04 05:37:37;;;;;;;10.53;8.63;;;13.30;93.30;;;;;;5013147;28;20178;-76
2023/05/04 05:40:06;;;;;;;13.63;12.33;;;13.00;93.70;;;;;;5013051;28;20462;-77
2023/05/04 05:42:32;;;;;;;11.00;9.73;;;12.80;94.70;;;;;;5013514;28;20180;-77
2023/05/04 05:45:00;;;;;;;11.37;10.10;;;12.60;95.50;;;;;;5013048;28;20512;-77
2023/05/04 05:47:26;;;;;;;11.40;9.93;;;12.30;95.50;;;;;;5013160;28;20413;-77
2023/05/04 05:49:52;;;;;;;11.97;10.40;;;12.00;95.90;;;;;;5008412;28;20783;-77
2023/05/04 05:52:18;;;;;;;12.20;10.93;;;11.90;97.10;;;;;;5009417;28;20480;-77
2023/05/04 05:54:43;;;;;;;10.70;9.80;;;11.70;98.00;;;;;;5012261;28;20460;-76
2023/05/04 05:57:09;;;;;;;14.30;12.80;;;11.50;99.30;;;;;;5012724;28;20236;-77
2023/05/04 05:59:37;;;;;;;13.83;12.43;;;11.30;99.90;;;;;;5012385;28;20620;-77
2023/05/04 06:02:03;;;;;;;12.70;11.33;;;11.30;99.90;;;;;;5011509;28;20199;-78
2023/05/04 06:04:29;;;;;;;13.70;11.93;;;11.20;99.90;;;;;;5012732;28;20460;-77
2023/05/04 06:06:55;;;;;;;16.57;13.87;;;11.10;99.90;;;;;;5010654;28;20498;-77
2023/05/04 06:09:21;;;;;;;11.57;8.93;;;11.10;99.90;;;;;;5011002;28;20581;-77
2023/05/04 06:11:46;;;;;;;13.07;11.60;;;11.00;99.90;;;;;;5001252;28;20265;-77
2023/05/04 06:14:12;;;;;;;11.13;9.93;;;11.10;99.90;;;;;;5012842;28;20209;-77
2023/05/04 06:16:38;;;;;;;11.83;10.63;;;11.20;99.90;;;;;;5012949;28;20645;-77
2023/05/04 06:19:04;;;;;;;11.77;10.60;;;11.20;99.90;;;;;;5010808;28;20202;-77
2023/05/04 06:21:30;;;;;;;13.53;12.00;;;11.30;99.90;;;;;;5010916;28;20194;-78
2023/05/04 06:23:56;;;;;;;12.60;10.77;;;11.40;99.90;;;;;;5010246;28;20430;-77
2023/05/04 06:26:22;;;;;;;11.33;10.27;;;11.60;99.90;;;;;;5010877;28;20812;-78
2023/05/04 06:28:48;;;;;;;12.00;10.70;;;11.70;99.90;;;;;;4990142;28;20644;-77
2023/05/04 06:31:14;;;;;;;11.93;9.60;;;11.90;99.90;;;;;;5001740;28;20424;-77
2023/05/04 06:33:40;;;;;;;11.40;9.60;;;12.10;99.90;;;;;;5007987;28;20571;-78
2023/05/04 06:36:05;;;;;;;10.70;9.40;;;12.20;99.90;;;;;;5010924;28;20484;-77
2023/05/04 06:38:31;;;;;;;12.60;11.30;;;12.40;99.90;;;;;;5010390;28;20240;-78
2023/05/04 06:40:57;;;;;;;13.70;10.93;;;12.60;99.90;;;;;;5009053;28;20412;-77
2023/05/04 06:43:23;;;;;;;12.17;10.97;;;12.80;99.90;;;;;;5007681;28;20186;-77
2023/05/04 06:45:49;;;;;;;14.50;12.00;;;13.00;99.90;;;;;;5011974;28;20428;-77
2023/05/04 06:48:15;;;;;;;13.27;11.60;;;13.10;99.90;;;;;;5012656;28;20175;-78
2023/05/04 06:50:41;;;;;;;15.73;12.50;;;13.20;99.90;;;;;;5011315;28;20305;-78
2023/05/04 06:53:09;;;;;;;12.43;10.53;;;13.30;99.90;;;;;;5011624;28;20441;-78
2023/05/04 06:55:36;;;;;;;14.50;11.00;;;13.40;99.90;;;;;;5012449;28;20227;-79
2023/05/04 06:58:02;;;;;;;12.60;10.43;;;13.50;99.90;;;;;;5010724;28;20430;-78
2023/05/04 07:00:28;;;;;;;12.20;11.00;;;13.60;99.90;;;;;;5011928;28;20434;-78
2023/05/04 07:02:54;;;;;;;12.63;9.57;;;13.70;99.90;;;;;;5005847;28;20434;-78
2023/05/04 07:05:21;;;;;;;16.53;10.40;;;13.80;99.20;;;;;;5010654;28;20786;-78
2023/05/04 07:07:47;;;;;;;9.97;8.33;;;13.90;99.90;;;;;;5009801;28;20230;-77
2023/05/04 07:10:13;;;;;;;9.67;8.30;;;14.00;99.80;;;;;;5005276;28;20836;-78
2023/05/04 07:12:40;;;;;;;9.80;9.00;;;13.90;96.50;;;;;;5014491;28;20430;-78
2023/05/04 07:15:07;;;;;;;12.57;8.27;;;14.00;96.40;;;;;;5015839;28;20462;-80
2023/05/04 07:17:33;;;;;;;8.53;7.63;;;14.20;96.70;;;;;;5016527;28;20495;-79
2023/05/04 07:20:04;;;;;;;7.60;7.10;;;14.30;95.40;;;;;;5014185;28;20445;-77
2023/05/04 07:22:31;;;;;;;8.60;7.60;;;14.40;93.80;;;;;;5015366;28;20442;-77
2023/05/04 07:24:57;;;;;;;8.83;8.03;;;14.50;94.40;;;;;;5015415;28;20427;-76
2023/05/04 07:27:23;;;;;;;8.23;7.53;;;14.60;93.50;;;;;;5015901;28;20424;-76
2023/05/04 07:29:52;;;;;;;8.57;7.97;;;14.70;93.00;;;;;;5014745;28;20474;-76
2023/05/04 07:32:18;;;;;;;8.27;7.67;;;14.70;93.50;;;;;;5011638;28;20209;-76
2023/05/04 07:34:44;;;;;;;7.70;7.07;;;14.90;94.10;;;;;;5008392;28;20885;-77
2023/05/04 07:37:10;;;;;;;10.53;7.70;;;15.00;94.30;;;;;;5014728;28;20436;-76
2023/05/04 07:39:37;;;;;;;8.30;7.70;;;15.20;93.80;;;;;;5008576;28;20464;-76
2023/05/04 07:42:03;;;;;;;8.70;7.90;;;15.30;93.50;;;;;;4995370;28;20635;-76
2023/05/04 07:44:30;;;;;;;8.53;7.73;;;15.40;92.50;;;;;;4997917;28;20442;-75
2023/05/04 07:46:57;;;;;;;7.50;6.93;;;15.50;93.10;;;;;;5014709;28;20807;-77
2023/05/04 07:49:23;;;;;;;8.90;7.70;;;15.60;92.40;;;;;;5015405;28;20417;-76
2023/05/04 07:51:50;;;;;;;8.50;7.70;;;15.70;91.90;;;;;;5015428;28;20560;-74
2023/05/04 07:54:16;;;;;;;8.57;7.80;;;15.90;92.00;;;;;;5014956;28;20662;-78
2023/05/04 07:56:42;;;;;;;7.90;7.17;;;16.00;93.20;;;;;;4996797;28;20930;-76
2023/05/04 07:59:07;;;;;;;7.80;7.20;;;16.10;91.20;;;;;;4995024;28;20402;-76
2023/05/04 08:01:33;;;;;;;8.07;7.27;;;16.20;91.20;;;;;;4996068;28;20407;-76
2023/05/04 08:03:59;;;;;;;8.10;7.33;;;16.30;92.30;;;;;;5016549;28;20277;-79
2023/05/04 08:06:28;;;;;;;9.50;8.00;;;16.50;91.60;;;;;;5014452;28;20333;-77
2023/05/04 08:08:53;;;;;;;8.57;7.63;;;16.70;91.50;;;;;;5014386;28;20745;-75
2023/05/04 08:11:19;;;;;;;8.90;8.00;;;16.80;91.50;;;;;;5014442;28;20492;-77
2023/05/04 08:13:46;;;;;;;8.90;7.33;;;17.00;91.30;;;;;;5015008;28;20175;-76
2023/05/04 08:16:12;;;;;;;7.17;6.57;;;17.00;90.70;;;;;;5011919;28;20425;-75
2023/05/04 08:18:38;;;;;;;8.13;6.80;;;17.20;90.80;;;;;;5014679;28;20410;-78
2023/05/04 08:21:04;;;;;;;8.00;7.20;;;17.30;90.90;;;;;;5013075;28;20863;-78
2023/05/04 08:23:30;;;;;;;7.00;6.47;;;17.40;88.70;;;;;;5012451;28;20549;-78
2023/05/04 08:25:56;;;;;;;7.70;7.00;;;17.50;90.00;;;;;;5014121;28;20410;-78
2023/05/04 08:28:22;;;;;;;7.47;6.87;;;17.60;90.00;;;;;;5014719;28;20804;-78
2023/05/04 08:30:48;;;;;;;7.13;6.60;;;17.70;90.40;;;;;;5014658;28;20183;-78
2023/05/04 08:33:14;;;;;;;7.47;6.80;;;17.90;88.50;;;;;;5013880;28;20410;-77
2023/05/04 08:35:39;;;;;;;7.60;7.00;;;18.00;88.90;;;;;;5013482;28;20195;-77
2023/05/04 08:38:06;;;;;;;9.07;8.07;;;18.10;87.70;;;;;;5013839;28;20697;-77
2023/05/04 08:40:32;;;;;;;9.67;8.07;;;18.30;88.60;;;;;;5014081;28;20654;-77
2023/05/04 08:42:58;;;;;;;7.43;6.73;;;18.40;87.70;;;;;;5012550;28;20422;-77
2023/05/04 08:45:24;;;;;;;8.40;7.57;;;18.50;86.30;;;;;;5014256;28;20472;-77
2023/05/04 08:47:50;;;;;;;7.67;7.07;;;18.60;84.90;;;;;;5014339;28;20171;-77
2023/05/04 08:50:16;;;;;;;7.50;6.83;;;18.70;83.40;;;;;;5013087;28;20544;-77
2023/05/04 08:52:47;;;;;;;7.27;6.57;;;18.80;79.40;;;;;;5014066;28;20873;-77
2023/05/04 08:55:15;;;;;;;8.37;7.67;;;19.00;82.00;;;;;;5013535;28;20516;-77
2023/05/04 08:57:43;;;;;;;8.23;7.53;;;19.10;78.30;;;;;;5014023;28;20565;-77
2023/05/04 09:00:11;;;;;;;7.83;7.23;;;19.10;76.40;;;;;;5013250;28;20415;-77
2023/05/04 09:02:37;;;;;;;7.93;6.80;;;19.20;78.70;;;;;;5011656;28;20434;-77
2023/05/04 09:05:06;;;;;;;7.50;6.90;;;19.30;77.70;;;;;;5012762;28;20484;-77
2023/05/04 09:07:32;;;;;;;9.67;6.50;;;19.50;79.00;;;;;;5014314;28;20410;-77
2023/05/04 09:09:58;;;;;;;7.90;5.93;;;19.60;76.10;;;;;;5012974;28;20983;-76
2023/05/04 09:12:26;;;;;;;6.73;6.23;;;19.70;78.40;;;;;;5013529;28;20469;-77
2023/05/04 09:14:51;;;;;;;7.13;6.53;;;19.90;82.40;;;;;;5013934;28;20634;-77
2023/05/04 09:17:26;;;;;;;6.53;6.03;;;20.00;79.10;;;;;;5012884;28;20488;-77
2023/05/04 09:20:03;;;;;;;7.00;6.30;;;20.20;79.80;;;;;;5013864;28;20178;-77
2023/05/04 09:22:29;;;;;;;7.83;7.13;;;20.30;79.80;;;;;;5013630;28;20444;-79
2023/05/04 09:25:12;;;;;;;7.00;6.50;;;20.40;78.30;;;;;;5012155;28;20495;-77
2023/05/04 09:27:41;;;;;;;6.90;6.40;;;20.60;73.60;;;;;;5013742;28;20394;-78
2023/05/04 09:30:08;;;;;;;6.47;5.70;;;20.70;75.90;;;;;;5012991;28;20414;-78
2023/05/04 09:32:47;;;;;;;6.70;6.30;;;20.80;74.10;;;;;;5013527;28;20414;-77
2023/05/04 09:35:13;;;;;;;7.17;6.57;;;20.70;68.70;;;;;;5012638;28;20485;-78
2023/05/04 09:37:46;;;;;;;7.57;7.10;;;20.70;69.80;;;;;;5013356;28;20418;-77
2023/05/04 09:40:13;;;;;;;7.40;6.90;;;20.80;71.70;;;;;;5012873;28;20794;-77
2023/05/04 09:42:39;;;;;;;6.70;6.20;;;20.80;71.10;;;;;;5013138;28;20543;-78
2023/05/04 09:45:07;;;;;;;7.60;7.00;;;21.00;74.80;;;;;;5012726;28;20457;-77
2023/05/04 09:47:34;;;;;;;9.00;8.20;;;21.20;73.20;;;;;;5013277;28;20840;-78
2023/05/04 09:50:17;;;;;;;7.40;6.77;;;21.20;68.50;;;;;;5012121;28;20477;-78
2023/05/04 09:52:45;;;;;;;6.57;6.20;;;21.40;68.80;;;;;;5012101;28;20425;-77
2023/05/04 09:55:13;;;;;;;6.87;6.30;;;21.40;66.40;;;;;;4992917;28;20483;-78
2023/05/04 09:57:43;;;;;;;5.63;5.23;;;21.40;66.30;;;;;;4993492;28;20477;-77
2023/05/04 10:00:15;;;;;;;13.83;12.50;;;21.60;67.80;;;;;;4991621;28;20773;-78
2023/05/04 10:02:45;;;;;;;7.13;6.63;;;21.60;64.10;;;;;;4993493;28;20407;-78
2023/05/04 10:05:20;;;;;;;7.30;6.63;;;21.70;65.90;;;;;;4993309;28;20454;-77
2023/05/04 10:07:45;;;;;;;8.50;7.70;;;21.90;65.80;;;;;;4993842;28;20414;-78
2023/05/04 10:10:13;;;;;;;7.27;6.77;;;21.90;61.10;;;;;;4992791;28;20476;-78
2023/05/04 10:12:39;;;;;;;7.03;6.63;;;22.10;62.50;;;;;;4993323;28;20406;-78
2023/05/04 10:15:09;;;;;;;8.20;7.70;;;22.20;65.20;;;;;;5007936;28;20450;-77
2023/05/04 10:17:54;;;;;;;7.63;7.13;;;22.20;62.40;;;;;;4993376;28;20765;-77
2023/05/04 10:20:30;;;;;;;6.33;6.00;;;22.40;61.90;;;;;;4996320;28;20438;-78
2023/05/04 10:23:17;;;;;;;7.13;6.50;;;22.50;58.80;;;;;;5012828;28;20437;-77
2023/05/04 10:26:01;;;;;;;7.10;6.40;;;22.70;63.50;;;;;;5012863;28;20413;-77
2023/05/04 10:28:33;;;;;;;6.93;6.27;;;22.90;61.80;;;;;;5012845;28;20406;-76
2023/05/04 10:30:59;;;;;;;6.37;5.83;;;23.00;59.20;;;;;;5012300;28;20737;-76
2023/05/04 10:33:25;;;;;;;7.17;6.70;;;22.80;55.70;;;;;;5012965;28;20398;-77
2023/05/04 10:35:53;;;;;;;6.57;6.17;;;22.90;58.20;;;;;;5011469;28;20461;-77
2023/05/04 10:38:19;;;;;;;6.57;6.07;;;23.00;56.70;;;;;;5012250;28;20778;-76
2023/05/04 10:40:47;;;;;;;6.93;6.20;;;23.00;54.70;;;;;;5012738;28;20925;-77
2023/05/04 10:43:24;;;;;;;6.43;6.03;;;23.00;56.00;;;;;;5012159;28;20406;-76
2023/05/04 10:45:50;;;;;;;6.30;5.90;;;23.20;56.40;;;;;;5012822;28;20401;-76
2023/05/04 10:48:16;;;;;;;5.00;4.70;;;23.30;55.60;;;;;;5014727;28;20424;-77
2023/05/04 10:50:48;;;;;;;6.17;5.87;;;23.30;55.20;;;;;;5015292;28;20884;-77
2023/05/04 10:53:16;;;;;;;8.40;7.70;;;23.40;54.00;;;;;;5016153;28;20437;-77
2023/05/04 10:55:46;;;;;;;6.40;6.00;;;23.50;53.90;;;;;;5016782;28;20458;-78
2023/05/04 10:58:15;;;;;;;7.00;6.50;;;23.50;52.50;;;;;;5016579;28;20410;-77
2023/05/04 11:00:50;;;;;;;7.03;6.50;;;23.40;52.10;;;;;;5017264;28;20449;-79
2023/05/04 11:03:17;;;;;;;7.00;6.50;;;23.50;54.40;;;;;;5032925;28;20410;-78
2023/05/04 11:05:53;;;;;;;7.13;6.70;;;23.60;53.50;;;;;;5017345;28;20448;-79
2023/05/04 11:08:20;;;;;;;7.07;6.67;;;23.60;51.40;;;;;;5016968;28;20826;-78
2023/05/04 11:10:47;;;;;;;7.17;6.07;;;23.70;52.80;;;;;;5017065;28;20924;-78
2023/05/04 11:13:17;;;;;;;10.13;8.00;;;23.70;52.80;;;;;;5016994;28;20406;-78
2023/05/04 11:15:47;;;;;;;6.97;6.57;;;23.80;53.10;;;;;;5017492;28;20588;-78
2023/05/04 11:18:24;;;;;;;7.53;6.80;;;23.90;55.00;;;;;;5017804;28;20418;-79
2023/05/04 11:20:50;;;;;;;6.20;5.90;;;24.10;53.40;;;;;;5016915;28;20465;-79
2023/05/04 11:23:16;;;;;;;6.60;6.00;;;24.20;51.70;;;;;;5017243;28;20414;-79
2023/05/04 11:25:42;;;;;;;7.20;6.60;;;24.30;52.00;;;;;;5032849;28;20171;-79
2023/05/04 11:28:08;;;;;;;6.80;6.40;;;24.40;51.90;;;;;;5016685;28;20409;-78
2023/05/04 11:30:34;;;;;;;6.47;5.97;;;24.30;51.20;;;;;;4999966;28;20175;-78
2023/05/04 11:33:03;;;;;;;6.90;6.40;;;24.30;50.70;;;;;;5019077;28;20796;-79
2023/05/04 11:35:30;;;;;;;7.80;7.30;;;24.30;51.20;;;;;;5017652;28;20448;-77
2023/05/04 11:37:56;;;;;;;7.50;7.00;;;24.50;51.10;;;;;;5017711;28;20421;-79
2023/05/04 11:40:23;;;;;;;6.27;5.97;;;24.40;48.60;;;;;;5016717;28;20466;-77
2023/05/04 11:42:51;;;;;;;5.40;5.10;;;24.40;49.50;;;;;;5016458;28;20206;-78
2023/05/04 11:45:31;;;;;;;6.00;5.53;;;24.40;47.90;;;;;;4997907;28;20425;-78
2023/05/04 11:47:58;;;;;;;5.93;5.43;;;24.50;49.40;;;;;;5015770;28;20399;-79
2023/05/04 11:50:25;;;;;;;5.80;5.40;;;24.50;48.10;;;;;;5014235;28;20876;-79
2023/05/04 11:53:07;;;;;;;5.60;5.30;;;24.50;47.50;;;;;;5015280;28;20414;-79
2023/05/04 11:55:34;;;;;;;7.17;6.60;;;24.50;49.00;;;;;;5015539;28;20496;-79
2023/05/04 11:58:03;;;;;;;6.57;6.10;;;24.60;48.90;;;;;;5014802;28;20399;-79
2023/05/04 12:00:39;;;;;;;5.93;5.53;;;24.60;46.10;;;;;;5014870;28;20405;-78
2023/05/04 12:03:08;;;;;;;5.10;4.80;;;24.50;44.50;;;;;;5014391;28;20948;-78
2023/05/04 12:05:35;;;;;;;5.33;5.00;;;24.50;45.80;;;;;;5015975;28;20493;-79
2023/05/04 12:08:02;;;;;;;4.97;4.77;;;24.50;46.20;;;;;;5015376;28;20884;-77
2023/05/04 12:10:33;;;;;;;5.80;5.60;;;24.70;46.40;;;;;;5013503;28;20422;-78
2023/05/04 12:13:02;;;;;;;6.00;5.60;;;24.70;47.00;;;;;;5013729;28;20401;-78
2023/05/04 12:15:33;;;;;;;5.73;5.43;;;24.80;47.90;;;;;;5014267;28;20476;-79
2023/05/04 12:17:59;;;;;;;6.17;5.57;;;24.90;45.50;;;;;;5014658;28;20414;-79
2023/05/04 12:20:27;;;;;;;5.30;5.03;;;24.90;45.00;;;;;;5014069;28;20908;-77
2023/05/04 12:22:54;;;;;;;5.63;5.23;;;24.80;46.50;;;;;;5014642;28;20635;-77
2023/05/04 12:25:20;;;;;;;5.77;5.27;;;24.80;45.60;;;;;;5013801;28;20421;-77
2023/05/04 12:27:46;;;;;;;4.83;4.53;;;24.60;44.20;;;;;;5013501;28;20434;-77
2023/05/04 12:30:13;;;;;;;5.17;4.80;;;24.60;46.30;;;;;;5013968;28;20465;-77
2023/05/04 12:32:39;;;;;;;5.10;4.80;;;24.60;46.80;;;;;;5014572;28;20171;-78
2023/05/04 12:35:05;;;;;;;4.93;4.63;;;24.70;45.10;;;;;;5013330;28;20457;-77
2023/05/04 12:37:31;;;;;;;6.13;5.73;;;24.80;44.90;;;;;;5014503;28;20420;-77
2023/05/04 12:39:57;;;;;;;5.10;4.80;;;24.70;42.40;;;;;;5013011;28;20673;-77
2023/05/04 12:42:23;;;;;;;5.67;5.27;;;24.70;42.40;;;;;;5012156;28;20631;-77
2023/05/04 12:44:48;;;;;;;4.80;4.43;;;24.80;43.90;;;;;;5013144;28;20179;-78